Pays
Station

 

Conditions  météo  pour  Bishop, Bishop Airport  -  Etats-Unis    Etats-Unis

  
9 °C
    
 
 

METAR pour Bishop, Bishop Airport :

KBIH 212156Z AUTO 35018G28KT 10SM SCT075 OVC095 09/M04 A3000 RMK AO2 PK WND 35030/2128 SLP147 T00891044

 

Voici le bulletin pour Bishop, Bishop Airport - Etats-Unis.
 
Le bulletin a été fait il y a un moment, à 21:56 UTC .
Le vent soufflait à la vitesse de 9.3 mètres par seconde avec des rafales jusqu'à 14.4 mètres par seconde de Nord (350°).
 
La température était de 9 °C, avec un point de rosée à -4 °C.
La pression atmosphérique était de 1016 hPa.
L'humidité relative était de 39.6%.
 
Il y avait 3 à 4/8ème de nébulosité à une hauteur de 2286 mètres. Le ciel était nuageux à partir d'une hauteur de 2896 mètres
 
La visibilité globale était de 16.1 kilomètres.
 

 
 
 

Pays :   A   B   C   D   E   F   G   H   I   J   K   L   M   N   O   P   Q   R   S   T   U   V   W   Y   Z

 

Partenaires :  Info Météo avec Met'info
Météo Marine avec MeteoMarine.net
Infos Site  |  Infos Légales  |  Crédits  |  Confidentialité
Contactez-nous  |  Ajouter aux favoris
© 2013-2019 METAR - Tous droits réservés